»·PEaware :: N786SC KFAT-KBFL

N786SC :: KFAT-KBFL

FLIGHT INFORMATION

Flight Status: Arrived
Operator: Privately registered:
United States
More flights under this callsign
Pilot: Jereme M. (20698)
Aircraft: CESSNA 172 SKYHAWK
(C172)
More flights by this aircraft type
Origin: KFAT Fresno Yosemite Intl
United States
Destination: KBFL Meadows
United States
More flights between these airports :: More routes between these airports
Route: +
File this flight plan on PilotEdge
Remarks:
Altitude:
(Current/Filed)
7,500ft
Speed:
(Current/Filed)
110kts
Departed: 01-Nov-18 02:04 PM
Arrived: 01-Nov-18 03:02 PM
Distance/Time
Traveled:
87nm/0:58
Distance/Time
To Go:
Arrived

Flight Plot

Page will automatically refresh every two minutes.


Map Options




Map Legend


Flown Route
Filed Route
Departure Airport
Arrival Airport
Navaid (VOR, NDB)
Fix

Horizontal Profiles

Position Reports

Time Latitude Longitude Heading Altitude Ground
Speed
01-Nov-18 13:50 36.776415 -119.726401 306 338ft 0kts
01-Nov-18 13:51 36.776415 -119.726401 306 338ft 0kts
01-Nov-18 13:52 36.776415 -119.726401 306 338ft 0kts
01-Nov-18 13:53 36.776415 -119.726401 306 338ft 0kts
01-Nov-18 13:54 36.776415 -119.726401 306 338ft 0kts
01-Nov-18 13:55 36.776415 -119.726401 306 338ft 0kts
01-Nov-18 13:56 36.776415 -119.726401 306 338ft 0kts
01-Nov-18 13:57 36.776415 -119.726401 306 338ft 0kts
01-Nov-18 13:58 36.776415 -119.726401 306 338ft 0kts
01-Nov-18 13:59 36.776415 -119.726401 306 338ft 0kts
01-Nov-18 14:00 36.777120 -119.726371 35 338ft 7kts
01-Nov-18 14:01 36.776094 -119.722747 126 338ft 17kts
01-Nov-18 14:02 36.773008 -119.717336 125 338ft 20kts
01-Nov-18 14:03 36.769812 -119.711609 98 338ft 11kts
01-Nov-18 14:04 36.770042 -119.710999 37 338ft 0kts
01-Nov-18 14:05 36.770136 -119.710918 32 338ft 5kts
01-Nov-18 14:06 36.777117 -119.721544 302 535ft 70kts
01-Nov-18 14:07 36.782732 -119.742765 214 1101ft 79kts
01-Nov-18 14:08 36.765901 -119.758402 224 1723ft 78kts
01-Nov-18 14:09 36.748347 -119.774658 216 2251ft 81kts
01-Nov-18 14:10 36.730738 -119.790153 216 2819ft 78kts
01-Nov-18 14:11 36.712683 -119.805753 216 3310ft 82kts
01-Nov-18 14:12 36.693920 -119.821951 216 3798ft 85kts
01-Nov-18 14:13 36.674811 -119.838524 217 4285ft 85kts
01-Nov-18 14:14 36.656180 -119.854761 217 4760ft 82kts
01-Nov-18 14:15 36.635917 -119.868240 164 5153ft 89kts
01-Nov-18 14:16 36.612797 -119.857230 154 5547ft 92kts
01-Nov-18 14:17 36.590224 -119.846390 154 6007ft 85kts
01-Nov-18 14:18 36.568855 -119.836548 154 6408ft 83kts
01-Nov-18 14:19 36.548396 -119.827391 154 6763ft 83kts
01-Nov-18 14:20 36.526276 -119.817672 155 7101ft 87kts
01-Nov-18 14:21 36.506702 -119.804029 126 7459ft 81kts
01-Nov-18 14:22 36.489516 -119.780635 123 7544ft 109kts
01-Nov-18 14:23 36.468841 -119.750863 123 7546ft 115kts
01-Nov-18 14:24 36.448679 -119.722168 123 7545ft 112kts
01-Nov-18 14:26 36.428487 -119.693548 124 7545ft 112kts
01-Nov-18 14:27 36.408155 -119.664824 124 7545ft 112kts
01-Nov-18 14:28 36.387879 -119.636286 124 7546ft 113kts
01-Nov-18 14:29 36.367514 -119.607720 124 7547ft 113kts
01-Nov-18 14:30 36.343443 -119.584147 151 7544ft 118kts
01-Nov-18 14:31 36.314561 -119.566866 146 7546ft 117kts
01-Nov-18 14:32 36.286143 -119.548288 146 7548ft 117kts
01-Nov-18 14:33 36.257389 -119.529574 146 7551ft 117kts
01-Nov-18 14:34 36.228483 -119.510835 146 7555ft 117kts
01-Nov-18 14:35 36.199553 -119.492031 146 7560ft 118kts
01-Nov-18 14:36 36.170542 -119.473069 147 7567ft 118kts
01-Nov-18 14:37 36.141478 -119.453960 147 7575ft 119kts
01-Nov-18 14:38 36.112152 -119.434628 147 7584ft 119kts
01-Nov-18 14:39 36.082776 -119.415250 147 7595ft 120kts
01-Nov-18 14:40 36.053232 -119.395809 147 7607ft 120kts
01-Nov-18 14:41 36.022858 -119.378225 155 7618ft 121kts
01-Nov-18 14:42 35.991552 -119.363681 155 7631ft 121kts
01-Nov-18 14:43 35.960477 -119.349472 156 7644ft 121kts
01-Nov-18 14:44 35.928990 -119.335272 156 7661ft 121kts
01-Nov-18 14:45 35.897668 -119.321434 156 7676ft 121kts
01-Nov-18 14:46 35.871365 -119.309947 156 7430ft 126kts
01-Nov-18 14:47 35.843139 -119.297560 156 7000ft 127kts
01-Nov-18 14:48 35.810592 -119.283239 156 6502ft 126kts
01-Nov-18 14:49 35.778951 -119.267950 147 6006ft 124kts
01-Nov-18 14:50 35.749169 -119.247271 146 5502ft 123kts
01-Nov-18 14:51 35.719736 -119.226476 146 5000ft 122kts
01-Nov-18 14:52 35.689796 -119.207035 151 4596ft 118kts
01-Nov-18 14:53 35.661033 -119.189493 151 4392ft 114kts
01-Nov-18 14:54 35.632837 -119.172000 151 4176ft 114kts
01-Nov-18 14:55 35.602578 -119.152542 151 3678ft 126kts
01-Nov-18 14:56 35.571991 -119.132068 151 3177ft 124kts
01-Nov-18 14:57 35.542712 -119.111671 151 2677ft 119kts
01-Nov-18 14:58 35.513142 -119.094043 164 2174ft 117kts
01-Nov-18 14:59 35.482561 -119.081957 164 1672ft 111kts
01-Nov-18 15:00 35.459672 -119.064728 139 1557ft 93kts
01-Nov-18 15:01 35.441621 -119.041927 137 1588ft 93kts
01-Nov-18 15:02 35.424712 -119.021565 144 1361ft 84kts
01-Nov-18 15:03 35.417350 -119.036176 308 917ft 73kts
01-Nov-18 15:04 35.430406 -119.052020 310 579ft 61kts
01-Nov-18 15:05 35.438117 -119.060091 49 510ft 0kts
01-Nov-18 15:06 35.438117 -119.060091 49 510ft 0kts
01-Nov-18 15:07 35.438117 -119.060091 49 510ft 0kts
01-Nov-18 15:08 35.437800 -119.058768 139 510ft 10kts
01-Nov-18 15:09 35.435165 -119.055584 136 510ft 15kts

Navigation Log

Ident Type
1. KFAT Airport
2. KBFL Airport